Time;durP1;ratioP1;P1;durP2;ratioP2;P2;SDS_P1;SDS_P2;PMS_P1;PMS_P2;Temp;Humidity;BMP_temperature;BMP_pressure;BME280_temperature;BME280_humidity;BME280_pressure;Samples;Min_cycle;Max_cycle;Signal;HPM_P1;HPM_P2
2022/03/29 00:01:17;;;;;;;;;;;;;;;-6.10;61.70;95560.50;6316987;28;19934;-63
2022/03/29 00:04:22;;;;;;;;;;;;;;;-5.96;61.06;95548.25;6309358;28;19927;-63
2022/03/29 00:07:23;;;;;;;;;;;;;;;-5.85;59.65;95548.00;6312412;28;19920;-63
2022/03/29 00:10:24;;;;;;;;;;;;;;;-5.91;60.34;95541.28;6311933;28;19958;-63
2022/03/29 00:13:27;;;;;;;;;;;;;;;-5.76;59.09;95541.81;6305544;28;19927;-63
2022/03/29 00:16:31;;;;;;;;;;;;;;;-5.94;59.25;95556.75;6304980;28;20041;-62
2022/03/29 00:19:38;;;;;;;;;;;;;;;-5.89;59.26;95551.47;6306772;28;19924;-63
2022/03/29 00:22:44;;;;;;;;;;;;;;;-5.88;58.29;95564.25;6309782;28;20332;-64
2022/03/29 00:25:46;;;;;;;;;;;;;;;-5.83;58.36;95559.06;6314098;28;20293;-63
2022/03/29 00:28:47;;;;;;;;;;;;;;;-5.89;57.54;95572.84;6308122;28;19925;-63
2022/03/29 00:31:48;;;;;;;;;;;;;;;-5.83;57.43;95571.00;6311367;28;19927;-64
2022/03/29 00:34:52;;;;;;;;;;;;;;;-5.96;57.79;95576.44;6306079;28;19920;-63
2022/03/29 00:37:53;;;;;;;;;;;;;;;-6.04;58.12;95583.41;6309897;28;20407;-63
2022/03/29 00:40:55;;;;;;;;;;;;;;;-6.00;57.97;95579.06;6300810;28;19924;-63
2022/03/29 00:43:58;;;;;;;;;;;;;;;-6.09;57.83;95590.34;6306976;28;19924;-63
2022/03/29 00:47:02;;;;;;;;;;;;;;;-6.27;58.30;95588.19;6309105;28;19920;-62
2022/03/29 00:50:04;;;;;;;;;;;;;;;-6.54;58.80;95582.69;6311951;28;19927;-62
2022/03/29 00:53:08;;;;;;;;;;;;;;;-6.90;59.66;95579.97;6313650;28;19920;-63
2022/03/29 00:56:09;;;;;;;;;;;;;;;-6.85;58.88;95593.53;6313386;28;20325;-63
2022/03/29 00:59:11;;;;;;;;;;;;;;;-6.89;58.82;95591.03;6312752;28;19927;-66
2022/03/29 01:02:12;;;;;;;;;;;;;;;-7.00;59.57;95586.94;6299472;28;19924;-63
2022/03/29 01:05:16;;;;;;;;;;;;;;;-7.17;59.10;95575.31;6296926;28;20340;-63
2022/03/29 01:08:17;;;;;;;;;;;;;;;-7.19;59.48;95582.16;6315207;28;19920;-64
2022/03/29 01:11:19;;;;;;;;;;;;;;;-7.16;58.96;95582.09;6311068;28;19916;-63
2022/03/29 01:14:21;;;;;;;;;;;;;;;-7.26;58.17;95572.03;6315070;28;19931;-62
2022/03/29 01:17:40;;;;;;;;;;;;;;;-7.07;57.49;95571.75;6311276;28;19920;-64
2022/03/29 01:20:42;;;;;;;;;;;;;;;-7.15;56.97;95583.81;6310718;28;19920;-63
2022/03/29 01:23:45;;;;;;;;;;;;;;;-7.25;57.21;95585.66;6316028;28;19920;-63
2022/03/29 01:26:49;;;;;;;;;;;;;;;-7.39;57.04;95585.88;6316970;28;20338;-64
2022/03/29 01:29:56;;;;;;;;;;;;;;;-7.63;57.93;95576.03;6309866;28;19920;-63
2022/03/29 01:33:00;;;;;;;;;;;;;;;-7.62;57.74;95567.50;6314328;28;19919;-63
2022/03/29 01:36:04;;;;;;;;;;;;;;;-7.63;57.25;95581.16;6310497;28;19919;-63
2022/03/29 01:39:07;;;;;;;;;;;;;;;-7.47;56.52;95577.50;6311707;28;19927;-63
2022/03/29 01:42:10;;;;;;;;;;;;;;;-7.49;56.13;95574.13;6319097;28;19920;-64
2022/03/29 01:45:11;;;;;;;;;;;;;;;-7.43;54.85;95591.91;6312313;28;19925;-63
2022/03/29 01:48:14;;;;;;;;;;;;;;;-7.71;56.03;95594.03;6318020;28;19920;-63
2022/03/29 01:51:18;;;;;;;;;;;;;;;-7.89;56.76;95600.25;6319787;28;19920;-62
2022/03/29 01:54:21;;;;;;;;;;;;;;;-7.84;57.18;95605.28;6317188;28;19920;-64
2022/03/29 01:57:26;;;;;;;;;;;;;;;-7.81;57.42;95608.66;6308873;28;20293;-62
2022/03/29 02:00:38;;;;;;;;;;;;;;;-7.81;57.70;95611.19;6311645;28;19920;-63
2022/03/29 02:03:39;;;;;;;;;;;;;;;-7.63;57.05;95591.38;6311199;28;19926;-63
2022/03/29 02:06:42;;;;;;;;;;;;;;;-7.52;56.77;95575.00;6314202;28;20309;-62
2022/03/29 02:09:46;;;;;;;;;;;;;;;-7.40;56.31;95576.53;6312450;28;19920;-64
2022/03/29 02:12:47;;;;;;;;;;;;;;;-7.47;56.78;95592.84;6318643;28;19920;-62
2022/03/29 02:15:49;;;;;;;;;;;;;;;-7.37;56.66;95598.63;6318741;28;19920;-62
2022/03/29 02:18:52;;;;;;;;;;;;;;;-7.27;56.65;95595.91;6319063;28;20381;-63
2022/03/29 02:21:53;;;;;;;;;;;;;;;-7.13;56.98;95585.47;6319026;28;19924;-63
2022/03/29 02:24:55;;;;;;;;;;;;;;;-7.00;56.62;95584.38;6313956;28;19923;-64
2022/03/29 02:27:56;;;;;;;;;;;;;;;-6.78;56.78;95596.81;6317308;28;19920;-63
2022/03/29 02:30:57;;;;;;;;;;;;;;;-6.68;56.62;95594.91;6314210;28;19920;-62
2022/03/29 02:34:01;;;;;;;;;;;;;;;-6.58;56.43;95597.28;6309992;28;20018;-63
2022/03/29 02:37:02;;;;;;;;;;;;;;;-6.51;55.81;95595.47;6310726;28;19924;-63
2022/03/29 02:40:07;;;;;;;;;;;;;;;-6.43;55.83;95595.28;6313173;28;19924;-63
2022/03/29 02:43:08;;;;;;;;;;;;;;;-6.34;55.92;95595.97;6314173;28;20386;-63
2022/03/29 02:46:13;;;;;;;;;;;;;;;-5.93;54.23;95586.56;6316627;28;19919;-64
2022/03/29 02:49:14;;;;;;;;;;;;;;;-5.81;51.57;95580.34;6313419;28;19926;-63
2022/03/29 02:52:18;;;;;;;;;;;;;;;-6.05;51.13;95586.88;6318654;28;19920;-64
2022/03/29 02:55:24;;;;;;;;;;;;;;;-6.02;50.82;95599.59;6317218;28;19932;-63
2022/03/29 02:58:25;;;;;;;;;;;;;;;-6.08;51.23;95607.41;6307932;28;19919;-63
2022/03/29 03:01:30;;;;;;;;;;;;;;;-5.91;50.43;95623.25;6305491;28;19920;-66
2022/03/29 03:04:33;;;;;;;;;;;;;;;-6.12;50.75;95641.63;6316866;28;20335;-65
2022/03/29 03:07:34;;;;;;;;;;;;;;;-6.06;50.84;95641.50;6312144;28;19926;-65
2022/03/29 03:10:35;;;;;;;;;;;;;;;-6.07;51.27;95644.09;6310224;28;19926;-66
2022/03/29 03:13:37;;;;;;;;;;;;;;;-5.87;50.30;95642.78;6315293;28;19927;-65
2022/03/29 03:16:38;;;;;;;;;;;;;;;-5.65;49.37;95642.34;6314577;28;20508;-67
2022/03/29 03:19:40;;;;;;;;;;;;;;;-5.81;49.67;95639.25;6317369;28;19996;-67
2022/03/29 03:22:47;;;;;;;;;;;;;;;-5.88;50.20;95630.88;6311506;28;19939;-69
2022/03/29 03:25:54;;;;;;;;;;;;;;;-5.99;50.66;95629.44;6318284;28;19924;-66
2022/03/29 03:28:59;;;;;;;;;;;;;;;-6.20;51.05;95633.25;6321024;28;19920;-66
2022/03/29 03:32:03;;;;;;;;;;;;;;;-6.37;51.41;95637.00;6320811;28;19920;-66
2022/03/29 03:35:05;;;;;;;;;;;;;;;-6.63;52.49;95649.41;6320086;28;19919;-66
2022/03/29 03:38:09;;;;;;;;;;;;;;;-6.29;52.19;95643.66;6320859;28;19920;-66
2022/03/29 03:41:14;;;;;;;;;;;;;;;-6.29;52.68;95651.34;6321277;28;19920;-66
2022/03/29 03:44:15;;;;;;;;;;;;;;;-6.51;53.22;95664.56;6320352;28;20298;-66
2022/03/29 03:47:16;;;;;;;;;;;;;;;-6.73;53.27;95671.75;6320330;28;19942;-66
2022/03/29 03:50:19;;;;;;;;;;;;;;;-6.71;54.00;95679.38;6319007;28;19916;-68
2022/03/29 03:53:23;;;;;;;;;;;;;;;-6.85;54.41;95672.81;6318892;28;19920;-67
2022/03/29 03:56:24;;;;;;;;;;;;;;;-6.56;54.57;95664.63;6319827;28;19927;-66
2022/03/29 03:59:29;;;;;;;;;;;;;;;-6.48;53.65;95672.19;6320563;28;19919;-66
2022/03/29 04:02:35;;;;;;;;;;;;;;;-6.61;54.25;95660.47;6320264;28;19924;-67
2022/03/29 04:05:40;;;;;;;;;;;;;;;-6.49;53.06;95665.34;6320228;28;19920;-66
2022/03/29 04:08:43;;;;;;;;;;;;;;;-6.55;53.63;95652.66;6319875;28;19920;-66
2022/03/29 04:11:46;;;;;;;;;;;;;;;-6.60;53.54;95651.91;6312918;28;20382;-65
2022/03/29 04:14:48;;;;;;;;;;;;;;;-6.57;54.25;95645.03;6317724;28;20394;-65
2022/03/29 04:17:55;;;;;;;;;;;;;;;-6.41;54.15;95652.41;6313081;28;20009;-65
2022/03/29 04:21:01;;;;;;;;;;;;;;;-5.92;52.48;95649.72;6319666;28;19920;-67
2022/03/29 04:24:03;;;;;;;;;;;;;;;-5.87;50.97;95642.78;6315302;28;19924;-65
2022/03/29 04:27:05;;;;;;;;;;;;;;;-5.77;50.14;95642.63;6319199;28;20008;-65
2022/03/29 04:30:10;;;;;;;;;;;;;;;-6.13;50.17;95640.78;6307736;28;20064;-66
2022/03/29 04:33:15;;;;;;;;;;;;;;;-6.06;50.10;95641.50;6313686;28;20396;-66
2022/03/29 04:36:16;;;;;;;;;;;;;;;-6.11;50.72;95627.97;6308241;28;20373;-68
2022/03/29 04:39:20;;;;;;;;;;;;;;;-5.93;49.54;95630.13;6317889;28;19929;-68
2022/03/29 04:42:21;;;;;;;;;;;;;;;-6.00;50.10;95623.47;6317311;28;19920;-67
2022/03/29 04:45:26;;;;;;;;;;;;;;;-5.56;48.39;95623.38;6313948;28;20397;-71
2022/03/29 04:48:29;;;;;;;;;;;;;;;-5.48;48.21;95619.75;6301848;28;19998;-68
2022/03/29 04:51:35;;;;;;;;;;;;;;;-5.35;47.32;95624.59;6300580;28;19926;-67
2022/03/29 04:54:39;;;;;;;;;;;;;;;-5.09;46.00;95629.97;6314399;28;19920;-63
2022/03/29 04:57:42;;;;;;;;;;;;;;;-5.23;46.99;95625.16;6307196;28;20235;-70
2022/03/29 05:00:45;;;;;;;;;;;;;;;-4.97;46.42;95621.97;6297835;28;19920;-67
2022/03/29 05:03:47;;;;;;;;;;;;;;;-5.03;46.12;95627.28;6309679;28;19951;-70
2022/03/29 05:06:50;;;;;;;;;;;;;;;-5.21;46.68;95620.88;6294506;28;19921;-66
2022/03/29 05:09:54;;;;;;;;;;;;;;;-5.12;47.22;95632.63;6294456;28;19920;-68
2022/03/29 05:12:57;;;;;;;;;;;;;;;-4.83;46.56;95623.38;6305512;28;19920;-67
2022/03/29 05:15:58;;;;;;;;;;;;;;;-4.75;46.36;95619.75;6322164;28;20495;-66
2022/03/29 05:19:04;;;;;;;;;;;;;;;-4.77;46.57;95639.47;6323201;28;19998;-64
2022/03/29 05:22:11;;;;;;;;;;;;;;;-4.32;45.80;95640.91;6324534;28;20296;-64
2022/03/29 05:25:18;;;;;;;;;;;;;;;-3.91;44.88;95644.06;6323739;28;19926;-65
2022/03/29 05:28:19;;;;;;;;;;;;;;;-3.55;43.97;95633.63;6323766;28;19920;-65
2022/03/29 05:31:22;;;;;;;;;;;;;;;-2.67;42.71;95639.47;6323967;28;19927;-68
2022/03/29 05:34:23;;;;;;;;;;;;;;;-0.06;38.68;95626.13;6320185;28;19920;-64
2022/03/29 05:37:24;;;;;;;;;;;;;;;2.78;33.27;95632.28;6322971;28;19920;-64
2022/03/29 05:40:26;;;;;;;;;;;;;;;4.65;30.33;95624.13;6321628;28;19920;-63
2022/03/29 05:43:30;;;;;;;;;;;;;;;6.13;28.50;95642.47;6318733;28;19916;-64
2022/03/29 05:49:53;;;;;;;;;;;;;;;5.90;26.00;95630.91;6319428;28;20076;-62
2022/03/29 05:52:54;;;;;;;;;;;;;;;5.56;25.91;95642.72;6317881;28;19920;-63
2022/03/29 05:55:58;;;;;;;;;;;;;;;4.86;26.81;95643.63;6314641;28;19915;-64
2022/03/29 05:59:00;;;;;;;;;;;;;;;4.54;27.26;95632.59;6314562;28;19941;-64
2022/03/29 06:02:04;;;;;;;;;;;;;;;3.89;28.55;95629.53;6315549;28;19968;-64
2022/03/29 06:05:07;;;;;;;;;;;;;;;3.88;28.68;95628.72;6317861;28;20016;-63
2022/03/29 06:08:08;;;;;;;;;;;;;;;3.71;28.86;95637.50;6318039;28;19927;-62
2022/03/29 06:11:13;;;;;;;;;;;;;;;3.52;29.04;95631.66;6308415;28;20117;-64
2022/03/29 06:14:16;;;;;;;;;;;;;;;3.83;29.01;95631.56;6313670;28;20015;-63
2022/03/29 06:17:18;;;;;;;;;;;;;;;3.83;29.17;95635.94;6317367;28;19920;-62
2022/03/29 06:20:22;;;;;;;;;;;;;;;3.17;29.55;95626.69;6319789;28;20452;-63
2022/03/29 06:23:25;;;;;;;;;;;;;;;2.57;31.05;95622.13;6308653;28;20297;-63
2022/03/29 06:26:26;;;;;;;;;;;;;;;2.84;31.57;95629.38;6309058;28;19931;-64
2022/03/29 06:29:34;;;;;;;;;;;;;;;3.25;31.13;95618.44;6310041;28;19920;-62
2022/03/29 06:32:45;;;;;;;;;;;;;;;3.33;31.34;95611.06;6312781;28;20297;-63
2022/03/29 06:35:47;;;;;;;;;;;;;;;2.84;30.37;95614.59;6315258;28;20004;-62
2022/03/29 06:38:51;;;;;;;;;;;;;;;2.32;32.13;95606.16;6310496;28;20407;-63
2022/03/29 06:41:55;;;;;;;;;;;;;;;2.33;32.19;95603.50;6306735;28;20062;-63
2022/03/29 06:44:59;;;;;;;;;;;;;;;2.67;31.10;95620.72;6312788;28;19943;-63
2022/03/29 06:48:00;;;;;;;;;;;;;;;2.73;31.31;95600.53;6315933;28;19920;-64
2022/03/29 06:51:02;;;;;;;;;;;;;;;2.82;31.71;95595.66;6312014;28;19926;-64
2022/03/29 06:54:03;;;;;;;;;;;;;;;2.98;30.68;95585.28;6309636;28;19920;-63
2022/03/29 06:57:05;;;;;;;;;;;;;;;2.76;32.18;95584.78;6315455;28;19931;-63
2022/03/29 07:00:09;;;;;;;;;;;;;;;3.12;31.79;95581.91;6312104;28;20440;-62
2022/03/29 07:03:11;;;;;;;;;;;;;;;2.82;32.30;95568.84;6312911;28;20340;-64
2022/03/29 07:06:12;;;;;;;;;;;;;;;2.91;32.25;95569.16;6316149;28;20032;-64
2022/03/29 07:12:48;;;;;;;;;;;;;;;2.57;33.25;95579.72;6317256;28;19919;-63
2022/03/29 07:15:50;;;;;;;;;;;;;;;2.01;33.98;95555.88;6313180;28;20164;-65
2022/03/29 07:18:54;;;;;;;;;;;;;;;1.49;34.68;95571.50;6315353;28;20361;-64
2022/03/29 07:21:58;;;;;;;;;;;;;;;1.15;34.93;95555.00;6309456;28;19923;-62
2022/03/29 07:24:59;;;;;;;;;;;;;;;0.84;35.34;95551.31;6307865;28;19923;-63
2022/03/29 07:28:00;;;;;;;;;;;;;;;0.48;35.60;95540.09;6311634;28;19920;-63
2022/03/29 07:31:01;;;;;;;;;;;;;;;0.12;36.57;95530.53;6312504;28;19923;-63
2022/03/29 07:34:03;;;;;;;;;;;;;;;-0.02;37.39;95524.22;6316964;28;20498;-62
2022/03/29 07:37:07;;;;;;;;;;;;;;;0.05;37.18;95521.38;6312374;28;19993;-65
2022/03/29 07:40:11;;;;;;;;;;;;;;;0.04;38.06;95514.53;6304216;28;20308;-64
2022/03/29 07:43:12;;;;;;;;;;;;;;;-0.15;37.81;95520.50;6308268;28;19915;-63
2022/03/29 07:46:13;;;;;;;;;;;;;;;-0.44;39.08;95516.63;6312868;28;19920;-63
2022/03/29 07:49:19;;;;;;;;;;;;;;;-0.79;39.82;95500.03;6317336;28;19920;-63
2022/03/29 07:52:20;;;;;;;;;;;;;;;-0.81;40.45;95491.53;6313261;28;19916;-63
2022/03/29 07:55:24;;;;;;;;;;;;;;;-1.10;40.81;95491.00;6312455;28;19924;-63
2022/03/29 07:58:25;;;;;;;;;;;;;;;-1.01;40.98;95485.44;6314115;28;19924;-64
2022/03/29 08:01:28;;;;;;;;;;;;;;;-1.16;42.03;95474.03;6313805;28;21568;-64
2022/03/29 08:04:32;;;;;;;;;;;;;;;-1.25;43.67;95491.59;6312870;28;19921;-63
2022/03/29 08:07:33;;;;;;;;;;;;;;;-1.28;44.31;95476.25;6315802;28;20018;-63
2022/03/29 08:10:35;;;;;;;;;;;;;;;-1.52;45.46;95473.78;6311969;28;19919;-65
2022/03/29 08:13:39;;;;;;;;;;;;;;;-1.71;46.98;95465.91;6313550;28;19920;-65
2022/03/29 08:16:42;;;;;;;;;;;;;;;-1.89;47.18;95482.94;6315318;28;20187;-63
2022/03/29 08:19:43;;;;;;;;;;;;;;;-2.10;47.68;95466.53;6308124;28;19919;-64
2022/03/29 08:22:47;;;;;;;;;;;;;;;-2.10;47.59;95476.00;6315668;28;19928;-63
2022/03/29 08:25:48;;;;;;;;;;;;;;;-2.09;47.52;95449.38;6312231;28;19924;-64
2022/03/29 08:28:50;;;;;;;;;;;;;;;-2.20;47.45;95454.09;6314189;28;20010;-64
2022/03/29 08:31:52;;;;;;;;;;;;;;;-2.15;46.26;95434.09;6307127;28;19920;-63
2022/03/29 08:34:53;;;;;;;;;;;;;;;-2.22;45.93;95424.94;6312815;28;19947;-64
2022/03/29 08:37:57;;;;;;;;;;;;;;;-2.33;45.23;95426.19;6316209;28;20780;-64
2022/03/29 08:40:59;;;;;;;;;;;;;;;-2.18;44.66;95411.91;6310625;28;19920;-62
2022/03/29 08:44:01;;;;;;;;;;;;;;;-2.10;42.94;95419.31;6307681;28;19920;-62
2022/03/29 08:47:05;;;;;;;;;;;;;;;-1.91;42.19;95409.97;6312223;28;19920;-64
2022/03/29 08:50:10;;;;;;;;;;;;;;;-1.96;41.92;95411.88;6298170;28;20892;-64
2022/03/29 08:53:12;;;;;;;;;;;;;;;-2.00;40.86;95436.13;6315820;28;19919;-63
2022/03/29 08:56:15;;;;;;;;;;;;;;;-2.18;40.38;95390.41;6298904;28;19920;-64
2022/03/29 08:59:18;;;;;;;;;;;;;;;-2.14;40.06;95387.69;6301657;28;20273;-65
2022/03/29 09:02:19;;;;;;;;;;;;;;;-2.40;40.16;95380.97;6311018;28;20060;-64
2022/03/29 09:05:24;;;;;;;;;;;;;;;-2.60;41.10;95399.72;6311110;28;19924;-64
2022/03/29 09:08:25;;;;;;;;;;;;;;;-2.81;41.46;95398.75;6313973;28;19973;-64
2022/03/29 09:11:39;;;;;;;;;;;;;;;-2.91;41.99;95388.88;6313518;28;20328;-64
2022/03/29 09:14:57;;;;;;;;;;;;;;;-2.83;42.41;95374.84;6304639;28;19927;-63
2022/03/29 09:18:07;;;;;;;;;;;;;;;-2.80;42.68;95374.72;6309859;28;19920;-64
2022/03/29 09:21:11;;;;;;;;;;;;;;;-2.73;42.57;95370.16;6315608;28;19920;-64
2022/03/29 09:24:17;;;;;;;;;;;;;;;-2.75;43.33;95353.94;6306820;28;19935;-63
2022/03/29 09:27:18;;;;;;;;;;;;;;;-2.85;44.60;95363.75;6311356;28;19920;-64
2022/03/29 09:30:19;;;;;;;;;;;;;;;-2.75;43.84;95349.63;6311367;28;19982;-63
2022/03/29 09:33:27;;;;;;;;;;;;;;;-2.46;43.31;95337.41;6310417;28;19927;-65
2022/03/29 09:36:39;;;;;;;;;;;;;;;-2.51;43.60;95342.72;6308763;28;19920;-63
2022/03/29 09:39:44;;;;;;;;;;;;;;;-2.57;44.36;95330.09;6311055;28;19943;-62
2022/03/29 09:43:03;;;;;;;;;;;;;;;-2.55;44.89;95324.84;6313308;28;19955;-64
2022/03/29 09:46:06;;;;;;;;;;;;;;;-2.56;44.59;95323.19;6309644;28;19920;-63
2022/03/29 09:49:07;;;;;;;;;;;;;;;-2.85;44.92;95317.41;6309838;28;19930;-63
2022/03/29 09:52:10;;;;;;;;;;;;;;;-3.05;46.39;95341.31;6308627;28;19920;-63
2022/03/29 09:55:21;;;;;;;;;;;;;;;-3.39;48.91;95339.94;6313836;28;19920;-63
2022/03/29 09:58:28;;;;;;;;;;;;;;;-3.62;51.81;95302.16;6312977;28;19920;-62
2022/03/29 10:01:29;;;;;;;;;;;;;;;-3.76;54.09;95306.94;6315545;28;19920;-63
2022/03/29 10:04:30;;;;;;;;;;;;;;;-3.85;55.00;95291.81;6319718;28;19920;-63
2022/03/29 10:07:43;;;;;;;;;;;;;;;-3.79;56.39;95291.63;6316237;28;20320;-62
2022/03/29 10:10:46;;;;;;;;;;;;;;;-4.04;58.90;95280.50;6316748;28;20441;-64
2022/03/29 10:13:47;;;;;;;;;;;;;;;-4.19;61.58;95286.94;6318331;27;19927;-63
2022/03/29 10:16:52;;;;;;;;;;;;;;;-4.24;60.89;95299.97;6313609;28;19920;-67
2022/03/29 10:19:54;;;;;;;;;;;;;;;-4.56;61.67;95283.84;6316331;28;20316;-71
2022/03/29 10:22:59;;;;;;;;;;;;;;;-4.70;63.47;95262.88;6318664;28;19920;-69
2022/03/29 10:26:02;;;;;;;;;;;;;;;-4.66;64.64;95246.53;6315237;28;20313;-63
2022/03/29 10:29:07;;;;;;;;;;;;;;;-4.61;65.95;95234.38;6318872;28;19985;-65
2022/03/29 10:32:26;;;;;;;;;;;;;;;-4.42;66.00;95233.78;6309184;28;19924;-66
2022/03/29 10:35:30;;;;;;;;;;;;;;;-4.34;67.67;95237.78;6309680;28;19920;-66
2022/03/29 10:38:43;;;;;;;;;;;;;;;-4.28;67.52;95231.59;6321360;28;19920;-65
2022/03/29 10:41:44;;;;;;;;;;;;;;;-4.36;67.36;95239.56;6313514;28;19920;-62
2022/03/29 10:44:59;;;;;;;;;;;;;;;-4.25;68.19;95246.06;6318360;28;19926;-64
2022/03/29 10:48:07;;;;;;;;;;;;;;;-4.22;68.12;95221.13;6319891;28;19923;-64
2022/03/29 10:51:22;;;;;;;;;;;;;;;-4.23;69.56;95224.59;6318262;28;20339;-62
2022/03/29 10:54:29;;;;;;;;;;;;;;;-4.03;68.81;95220.50;6314058;28;19919;-63
2022/03/29 10:57:32;;;;;;;;;;;;;;;-3.94;69.40;95204.75;6296211;28;19934;-63
2022/03/29 11:00:40;;;;;;;;;;;;;;;-3.92;69.13;95197.84;6307353;28;19920;-63
2022/03/29 11:04:04;;;;;;;;;;;;;;;-3.95;69.80;95197.97;6321049;28;19920;-63
2022/03/29 11:07:06;;;;;;;;;;;;;;;-3.88;69.54;95199.41;6320758;28;19920;-63
2022/03/29 11:10:12;;;;;;;;;;;;;;;-3.50;69.92;95184.34;6319754;28;19920;-64
2022/03/29 11:13:42;;;;;;;;;;;;;;;-3.50;68.47;95181.78;6321140;28;20507;-63
2022/03/29 11:16:48;;;;;;;;;;;;;;;-3.52;69.70;95192.13;6304880;28;19920;-65
2022/03/29 11:19:50;;;;;;;;;;;;;;;-3.48;68.30;95185.13;6321420;28;19926;-63
2022/03/29 11:22:51;;;;;;;;;;;;;;;-3.51;69.18;95175.81;6320476;28;20408;-63
2022/03/29 11:25:52;;;;;;;;;;;;;;;-3.50;69.43;95166.34;6320113;28;19928;-63
2022/03/29 11:28:55;;;;;;;;;;;;;;;-3.30;67.96;95151.00;6320668;28;19923;-64
2022/03/29 11:31:59;;;;;;;;;;;;;;;-3.26;67.41;95147.41;6321379;28;20385;-64
2022/03/29 11:35:03;;;;;;;;;;;;;;;-2.98;67.62;95148.91;6320473;28;19921;-64
2022/03/29 11:38:07;;;;;;;;;;;;;;;-2.75;66.93;95148.00;6320708;28;19927;-64
2022/03/29 11:41:19;;;;;;;;;;;;;;;-2.40;66.95;95153.47;6320113;28;19920;-64
2022/03/29 11:44:24;;;;;;;;;;;;;;;-2.55;66.75;95129.16;6320076;28;19920;-64
2022/03/29 11:47:27;;;;;;;;;;;;;;;-2.42;67.16;95119.19;6320395;28;19927;-64
2022/03/29 11:50:29;;;;;;;;;;;;;;;-2.33;66.62;95123.94;6320623;28;19920;-64
2022/03/29 11:53:31;;;;;;;;;;;;;;;-2.33;66.90;95099.03;6309040;28;19921;-63
2022/03/29 11:56:36;;;;;;;;;;;;;;;-2.28;66.38;95104.81;6295291;28;19928;-66
2022/03/29 11:59:37;;;;;;;;;;;;;;;-2.36;66.54;95094.00;6293303;28;20015;-63
2022/03/29 12:02:41;;;;;;;;;;;;;;;-2.48;66.67;95076.50;6316435;28;19968;-64
2022/03/29 12:05:44;;;;;;;;;;;;;;;-2.55;67.43;95075.94;6319216;28;19920;-63
2022/03/29 12:08:47;;;;;;;;;;;;;;;-2.43;68.02;95059.13;6319124;28;19927;-64
2022/03/29 12:11:48;;;;;;;;;;;;;;;-2.45;67.78;95058.34;6320176;28;20419;-64
2022/03/29 12:14:59;;;;;;;;;;;;;;;-2.50;67.68;95060.28;6319718;28;20483;-64
2022/03/29 12:21:25;;;;;;;;;;;;;;;-2.70;69.71;95053.41;6319815;28;19920;-64
2022/03/29 12:24:30;;;;;;;;;;;;;;;-2.62;69.51;95046.19;6318735;28;20286;-63
2022/03/29 12:27:31;;;;;;;;;;;;;;;-2.65;69.29;95046.31;6319520;28;19920;-64
2022/03/29 12:30:32;;;;;;;;;;;;;;;-2.68;69.64;95035.31;6318167;28;19915;-64
2022/03/29 12:33:35;;;;;;;;;;;;;;;-2.74;69.72;95042.41;6320261;28;20384;-64
2022/03/29 12:36:40;;;;;;;;;;;;;;;-2.63;70.06;95033.38;6319430;28;19916;-64
2022/03/29 12:39:42;;;;;;;;;;;;;;;-2.51;70.33;95030.28;6318912;28;20297;-64
2022/03/29 12:42:45;;;;;;;;;;;;;;;-2.25;69.20;95018.84;6319803;28;20435;-64
2022/03/29 12:45:48;;;;;;;;;;;;;;;-2.22;68.31;95018.69;6318051;28;19996;-64
2022/03/29 12:48:51;;;;;;;;;;;;;;;-2.19;68.30;95013.41;6318628;28;19927;-64
2022/03/29 12:52:00;;;;;;;;;;;;;;;-2.16;68.18;95020.16;6319764;28;19920;-64
2022/03/29 12:55:02;;;;;;;;;;;;;;;-2.21;67.78;95017.78;6319052;28;19927;-63
2022/03/29 12:58:09;;;;;;;;;;;;;;;-2.36;68.35;95006.41;6319352;28;20377;-64
2022/03/29 13:01:24;;;;;;;;;;;;;;;-2.43;68.42;95010.19;6318951;28;19974;-65
2022/03/29 13:04:34;;;;;;;;;;;;;;;-2.60;68.54;95007.50;6310325;28;19927;-64
2022/03/29 13:07:41;;;;;;;;;;;;;;;-2.65;68.83;95010.28;6317743;28;19974;-64
2022/03/29 13:10:50;;;;;;;;;;;;;;;-2.71;68.73;94990.78;6315025;28;19920;-64
2022/03/29 13:14:08;;;;;;;;;;;;;;;-2.65;68.63;94988.84;6295110;28;20301;-65
2022/03/29 13:17:10;;;;;;;;;;;;;;;-2.48;68.47;94994.09;6313498;28;20025;-63
2022/03/29 13:20:11;;;;;;;;;;;;;;;-2.43;68.21;94999.88;6315852;28;19926;-63
2022/03/29 13:23:12;;;;;;;;;;;;;;;-2.35;68.17;95005.53;6316994;28;19950;-64
2022/03/29 13:26:14;;;;;;;;;;;;;;;-2.35;68.73;94995.22;6319124;28;20014;-64
2022/03/29 13:29:16;;;;;;;;;;;;;;;-2.17;68.89;95008.19;6317221;28;19916;-63
2022/03/29 13:32:22;;;;;;;;;;;;;;;-1.89;68.17;95013.78;6319917;28;20458;-64
2022/03/29 13:35:26;;;;;;;;;;;;;;;-1.82;67.89;95012.56;6323509;28;20085;-64
2022/03/29 13:38:29;;;;;;;;;;;;;;;-1.63;67.48;95011.72;6323463;28;20015;-65
2022/03/29 13:41:30;;;;;;;;;;;;;;;-1.53;67.15;95004.38;6318780;28;19942;-64
2022/03/29 13:44:31;;;;;;;;;;;;;;;-1.77;67.35;95012.38;6298311;28;19920;-64
2022/03/29 13:47:37;;;;;;;;;;;;;;;-1.50;66.74;95012.81;6298097;28;19920;-63
2022/03/29 13:50:41;;;;;;;;;;;;;;;-1.34;65.95;95027.56;6314664;28;19920;-64
2022/03/29 13:53:43;;;;;;;;;;;;;;;-1.20;66.01;95025.97;6322941;28;19950;-63
2022/03/29 13:56:47;;;;;;;;;;;;;;;-1.23;65.75;95020.97;6323226;28;19924;-64
2022/03/29 13:59:51;;;;;;;;;;;;;;;-1.41;66.15;95043.34;6317694;28;20006;-65
2022/03/29 14:02:52;;;;;;;;;;;;;;;-1.44;66.65;95053.81;6313035;28;19968;-69
2022/03/29 14:05:57;;;;;;;;;;;;;;;-1.57;66.53;95037.22;6312661;28;19920;-66
2022/03/29 14:09:01;;;;;;;;;;;;;;;-1.73;67.50;95056.88;6315806;28;19920;-69
2022/03/29 14:12:03;;;;;;;;;;;;;;;-1.74;68.07;95065.53;6310219;28;19920;-65
2022/03/29 14:15:10;;;;;;;;;;;;;;;-1.60;67.81;95063.16;6317600;28;19916;-66
2022/03/29 14:18:16;;;;;;;;;;;;;;;-1.26;67.39;95070.16;6316847;28;19920;-65
2022/03/29 14:21:19;;;;;;;;;;;;;;;-1.31;67.18;95084.19;6321321;28;20408;-65
2022/03/29 14:24:21;;;;;;;;;;;;;;;-1.47;67.36;95084.03;6311456;28;19920;-66
2022/03/29 14:27:22;;;;;;;;;;;;;;;-1.30;67.54;95086.69;6308483;28;19926;-65
2022/03/29 14:30:25;;;;;;;;;;;;;;;-1.65;68.34;95090.88;6313412;28;19920;-64
2022/03/29 14:33:26;;;;;;;;;;;;;;;-1.73;69.33;95098.13;6309446;28;19920;-68
2022/03/29 14:36:27;;;;;;;;;;;;;;;-1.60;69.70;95107.00;6314370;28;20029;-65
2022/03/29 14:39:36;;;;;;;;;;;;;;;-1.41;69.45;95120.72;6310116;28;19920;-71
2022/03/29 14:42:38;;;;;;;;;;;;;;;-1.53;69.36;95108.38;6316161;28;20316;-69
2022/03/29 14:45:39;;;;;;;;;;;;;;;-1.78;69.92;95125.84;6318479;28;20519;-71
2022/03/29 14:48:43;;;;;;;;;;;;;;;-1.71;70.05;95135.00;6296633;28;19921;-71
2022/03/29 14:51:50;;;;;;;;;;;;;;;-1.85;70.40;95136.44;6312372;28;19962;-68
2022/03/29 14:54:54;;;;;;;;;;;;;;;-1.84;70.34;95127.84;6319864;28;20022;-69
2022/03/29 14:57:55;;;;;;;;;;;;;;;-1.96;70.56;95130.09;6308324;28;20338;-72
2022/03/29 15:00:59;;;;;;;;;;;;;;;-2.04;70.86;95138.16;6314892;28;20011;-71
2022/03/29 15:04:02;;;;;;;;;;;;;;;-1.89;71.06;95145.22;6313495;28;19928;-65
2022/03/29 15:07:06;;;;;;;;;;;;;;;-1.63;70.34;95141.50;6312386;28;20385;-66
2022/03/29 15:10:08;;;;;;;;;;;;;;;-1.81;70.69;95142.31;6319986;28;19920;-65
2022/03/29 15:13:11;;;;;;;;;;;;;;;-1.57;70.69;95166.19;6321286;28;19920;-65
2022/03/29 15:16:12;;;;;;;;;;;;;;;-1.57;70.62;95173.91;6317491;28;20008;-69
2022/03/29 15:19:14;;;;;;;;;;;;;;;-1.59;70.99;95178.28;6311385;28;20293;-65
2022/03/29 15:22:16;;;;;;;;;;;;;;;-1.49;71.49;95184.72;6316440;28;19927;-66
2022/03/29 15:25:18;;;;;;;;;;;;;;;-1.34;71.36;95187.53;6310825;28;19921;-67
2022/03/29 15:28:22;;;;;;;;;;;;;;;-1.49;71.67;95201.97;6317063;28;19920;-70
2022/03/29 15:31:26;;;;;;;;;;;;;;;-1.24;71.75;95189.63;6320059;28;20423;-67
2022/03/29 15:34:30;;;;;;;;;;;;;;;-1.16;71.57;95197.00;6319699;28;19927;-69
2022/03/29 15:37:33;;;;;;;;;;;;;;;-1.05;71.42;95212.84;6317409;28;20290;-70
2022/03/29 15:40:39;;;;;;;;;;;;;;;-0.91;71.58;95215.66;6314061;28;20627;-63
2022/03/29 15:43:43;;;;;;;;;;;;;;;-1.03;71.83;95223.09;6299697;28;19920;-64
2022/03/29 15:46:46;;;;;;;;;;;;;;;-1.00;71.50;95223.78;6317361;28;20416;-64
2022/03/29 15:49:50;;;;;;;;;;;;;;;-1.17;71.93;95210.81;6320006;28;19920;-63
2022/03/29 15:52:56;;;;;;;;;;;;;;;-1.01;72.33;95216.97;6313167;28;20089;-64
2022/03/29 15:55:58;;;;;;;;;;;;;;;-0.94;72.49;95239.00;6301617;28;19920;-63
2022/03/29 15:59:02;;;;;;;;;;;;;;;-0.97;72.27;95254.63;6314803;28;20414;-63
2022/03/29 16:02:03;;;;;;;;;;;;;;;-0.88;71.54;95252.53;6310749;28;20009;-66
2022/03/29 16:05:04;;;;;;;;;;;;;;;-0.91;71.82;95261.25;6307263;28;19923;-71
2022/03/29 16:08:05;;;;;;;;;;;;;;;-0.95;71.98;95276.06;6312895;28;20293;-70